Time;durP1;ratioP1;P1;durP2;ratioP2;P2;SDS_P1;SDS_P2;PMS_P1;PMS_P2;Temp;Humidity;BMP_temperature;BMP_pressure;BME280_temperature;BME280_humidity;BME280_pressure;Samples;Min_cycle;Max_cycle;Signal;HPM_P1;HPM_P2
2023/07/21 00:01:48;;;;;;;0.98;0.38;;;18.60;72.50;;;;;;5055337;28;20029;-82
2023/07/21 00:04:14;;;;;;;1.65;0.50;;;18.50;72.60;;;;;;5054406;28;20036;-75
2023/07/21 00:06:43;;;;;;;1.85;0.50;;;18.50;72.70;;;;;;5055523;28;20033;-76
2023/07/21 00:09:10;;;;;;;1.90;0.50;;;18.50;72.90;;;;;;5055266;28;20025;-76
2023/07/21 00:11:38;;;;;;;1.95;0.60;;;18.50;73.10;;;;;;5037659;28;20021;-76
2023/07/21 00:14:05;;;;;;;1.25;0.55;;;18.40;73.30;;;;;;5054343;28;20029;-75
2023/07/21 00:16:32;;;;;;;1.40;0.57;;;18.40;73.50;;;;;;5055338;28;20128;-76
2023/07/21 00:18:58;;;;;;;1.55;0.50;;;18.30;73.60;;;;;;5054268;28;20029;-82
2023/07/21 00:21:24;;;;;;;1.25;0.40;;;18.40;73.70;;;;;;5055465;28;20033;-81
2023/07/21 00:23:51;;;;;;;1.45;0.40;;;18.30;73.60;;;;;;5054297;28;20037;-82
2023/07/21 00:26:17;;;;;;;1.42;0.50;;;18.30;73.60;;;;;;5054478;28;20040;-82
2023/07/21 00:28:43;;;;;;;1.73;0.52;;;18.20;73.40;;;;;;5053956;28;20029;-82
2023/07/21 00:31:09;;;;;;;0.80;0.40;;;18.20;73.40;;;;;;5055471;28;20366;-80
2023/07/21 00:33:35;;;;;;;1.95;0.40;;;18.20;73.30;;;;;;5055245;28;20079;-82
2023/07/21 00:36:00;;;;;;;2.47;0.70;;;18.20;73.40;;;;;;5054059;28;20036;-82
2023/07/21 00:38:26;;;;;;;1.77;0.65;;;18.20;73.40;;;;;;5055116;28;20031;-76
2023/07/21 00:40:52;;;;;;;2.70;0.50;;;18.10;73.40;;;;;;5055177;28;20030;-75
2023/07/21 00:43:18;;;;;;;0.85;0.40;;;18.00;73.40;;;;;;5055502;28;20036;-76
2023/07/21 00:45:46;;;;;;;1.77;0.65;;;18.10;73.50;;;;;;5053888;28;20025;-83
2023/07/21 00:48:13;;;;;;;1.50;0.50;;;18.00;73.60;;;;;;5053657;28;20037;-82
2023/07/21 00:50:49;;;;;;;1.50;0.60;;;18.00;73.70;;;;;;5037304;28;20409;-82
2023/07/21 00:53:15;;;;;;;1.30;0.50;;;18.00;73.90;;;;;;5053621;28;20044;-82
2023/07/21 00:55:42;;;;;;;3.05;0.40;;;17.90;74.10;;;;;;5054799;28;20509;-82
2023/07/21 00:58:10;;;;;;;1.95;0.40;;;17.90;74.40;;;;;;5036975;28;20040;-81
2023/07/21 01:00:37;;;;;;;4.75;0.60;;;17.90;74.50;;;;;;5070028;28;20028;-81
2023/07/21 01:03:05;;;;;;;1.38;0.50;;;17.80;75.20;;;;;;5051693;28;20024;-81
2023/07/21 01:05:33;;;;;;;0.95;0.50;;;17.80;74.70;;;;;;5054485;28;20021;-81
2023/07/21 01:08:01;;;;;;;1.73;0.73;;;17.80;74.70;;;;;;5052879;28;20059;-81
2023/07/21 01:10:28;;;;;;;1.40;0.50;;;17.90;74.80;;;;;;5051940;28;20034;-81
2023/07/21 01:12:56;;;;;;;2.15;0.68;;;17.80;74.90;;;;;;5037119;28;20033;-75
2023/07/21 01:15:22;;;;;;;3.20;1.00;;;17.70;74.90;;;;;;5036610;28;20037;-75
2023/07/21 01:17:49;;;;;;;2.30;0.57;;;17.70;75.20;;;;;;5052869;28;20144;-75
2023/07/21 01:20:22;;;;;;;1.70;0.70;;;17.70;75.30;;;;;;5054184;28;20048;-75
2023/07/21 01:23:11;;;;;;;2.60;0.80;;;17.60;75.30;;;;;;5054269;28;20021;-75
2023/07/21 01:25:39;;;;;;;1.38;0.55;;;17.60;75.30;;;;;;5052848;28;20074;-76
2023/07/21 01:28:07;;;;;;;2.25;0.70;;;17.60;75.40;;;;;;5054298;28;20514;-75
2023/07/21 01:30:34;;;;;;;1.75;0.60;;;17.50;75.40;;;;;;5054531;28;20056;-75
2023/07/21 01:33:01;;;;;;;2.63;0.57;;;17.50;75.50;;;;;;5054291;28;20028;-75
2023/07/21 01:35:29;;;;;;;1.20;0.60;;;17.50;75.50;;;;;;5052947;28;20017;-75
2023/07/21 01:37:57;;;;;;;0.98;0.40;;;17.50;75.60;;;;;;5054193;28;20108;-75
2023/07/21 01:40:25;;;;;;;0.98;0.50;;;17.50;75.70;;;;;;5054086;28;20025;-75
2023/07/21 01:42:51;;;;;;;1.20;0.50;;;17.40;75.80;;;;;;5054565;28;20048;-75
2023/07/21 01:45:17;;;;;;;3.22;0.65;;;17.40;76.10;;;;;;5035892;28;20035;-75
2023/07/21 01:47:46;;;;;;;2.10;0.70;;;17.40;76.50;;;;;;5054299;28;20447;-75
2023/07/21 01:50:13;;;;;;;1.73;0.60;;;17.40;76.50;;;;;;5052345;28;20036;-75
2023/07/21 01:52:40;;;;;;;3.22;0.63;;;17.30;76.40;;;;;;5053735;28;20375;-75
2023/07/21 01:55:09;;;;;;;1.45;0.50;;;17.30;76.40;;;;;;5053827;28;20033;-75
2023/07/21 01:57:38;;;;;;;1.70;0.70;;;17.20;76.40;;;;;;5052356;28;20024;-75
2023/07/21 02:00:08;;;;;;;1.65;0.60;;;17.20;76.40;;;;;;5052474;28;20535;-75
2023/07/21 02:02:35;;;;;;;1.15;0.55;;;17.10;76.50;;;;;;5036313;28;20390;-75
2023/07/21 02:05:01;;;;;;;2.17;0.80;;;17.10;76.70;;;;;;5053604;28;20025;-75
2023/07/21 02:07:27;;;;;;;1.52;0.50;;;17.00;76.70;;;;;;5052208;28;20036;-75
2023/07/21 02:09:53;;;;;;;2.33;0.60;;;16.90;76.90;;;;;;5052155;28;20032;-75
2023/07/21 02:12:19;;;;;;;1.75;0.65;;;16.90;77.10;;;;;;5052145;28;20018;-75
2023/07/21 02:14:45;;;;;;;2.75;0.50;;;16.80;77.20;;;;;;5052136;28;20029;-75
2023/07/21 02:17:11;;;;;;;2.22;0.60;;;16.80;77.30;;;;;;5035305;28;20052;-75
2023/07/21 02:19:37;;;;;;;1.73;0.43;;;16.80;77.50;;;;;;5052497;28;20059;-75
2023/07/21 02:22:02;;;;;;;2.13;0.68;;;16.80;77.60;;;;;;5052708;28;20025;-75
2023/07/21 02:24:28;;;;;;;2.30;0.57;;;16.70;77.70;;;;;;5035768;28;20025;-75
2023/07/21 02:26:54;;;;;;;1.65;0.75;;;16.70;77.80;;;;;;5036069;28;20446;-75
2023/07/21 02:29:20;;;;;;;1.73;0.68;;;16.70;77.90;;;;;;5035588;28;20108;-75
2023/07/21 02:31:49;;;;;;;1.23;0.60;;;16.60;78.10;;;;;;5052114;28;20049;-75
2023/07/21 02:34:15;;;;;;;1.42;0.57;;;16.60;78.30;;;;;;5053547;28;20049;-75
2023/07/21 02:36:40;;;;;;;1.30;0.60;;;16.60;78.40;;;;;;5035887;28;20057;-74
2023/07/21 02:39:06;;;;;;;2.25;0.80;;;16.60;78.60;;;;;;5051912;28;20080;-75
2023/07/21 02:41:31;;;;;;;1.85;0.55;;;16.60;78.80;;;;;;5053032;28;20037;-75
2023/07/21 02:43:57;;;;;;;2.78;0.60;;;16.50;79.00;;;;;;5052151;28;20090;-74
2023/07/21 02:46:23;;;;;;;1.42;0.70;;;16.50;79.20;;;;;;5035620;28;20082;-75
2023/07/21 02:48:48;;;;;;;2.22;0.70;;;16.50;79.30;;;;;;5057360;28;20025;-75
2023/07/21 02:51:14;;;;;;;1.27;0.60;;;16.40;79.30;;;;;;5055798;28;20032;-75
2023/07/21 02:53:39;;;;;;;2.22;0.77;;;16.40;79.40;;;;;;5057171;28;20083;-74
2023/07/21 02:56:05;;;;;;;1.40;0.60;;;16.40;79.70;;;;;;5055673;28;20033;-74
2023/07/21 02:58:32;;;;;;;1.90;0.70;;;16.30;79.60;;;;;;5037361;28;20106;-74
2023/07/21 03:00:59;;;;;;;1.80;0.70;;;16.30;79.70;;;;;;5053264;28;20121;-75
2023/07/21 03:03:26;;;;;;;4.05;1.05;;;16.30;79.80;;;;;;5035800;28;20045;-75
2023/07/21 03:05:52;;;;;;;2.70;0.70;;;16.30;79.80;;;;;;5036531;28;20025;-74
2023/07/21 03:08:26;;;;;;;1.38;0.57;;;16.20;79.90;;;;;;5036561;28;20747;-81
2023/07/21 03:10:53;;;;;;;2.38;0.70;;;16.10;80.00;;;;;;5036783;28;20029;-80
2023/07/21 03:13:20;;;;;;;1.73;0.88;;;16.20;80.20;;;;;;5035533;28;20022;-81
2023/07/21 03:15:46;;;;;;;2.45;0.93;;;16.10;80.30;;;;;;5036686;28;20029;-80
2023/07/21 03:18:12;;;;;;;1.73;0.88;;;16.10;80.50;;;;;;5035388;28;20053;-80
2023/07/21 03:20:37;;;;;;;2.05;0.73;;;16.10;80.60;;;;;;5036698;28;20481;-80
2023/07/21 03:23:07;;;;;;;2.28;1.00;;;16.10;80.80;;;;;;5036593;28;20029;-81
2023/07/21 03:25:33;;;;;;;2.40;0.70;;;16.00;80.90;;;;;;5035460;28;20034;-81
2023/07/21 03:27:59;;;;;;;1.92;0.80;;;16.00;81.30;;;;;;5036367;28;20021;-81
2023/07/21 03:30:24;;;;;;;2.72;0.80;;;16.00;82.30;;;;;;5036416;28;20036;-80
2023/07/21 03:32:50;;;;;;;2.53;0.93;;;15.90;81.90;;;;;;5035315;28;20037;-80
2023/07/21 03:35:16;;;;;;;2.33;1.08;;;15.90;82.10;;;;;;5035213;28;20013;-74
2023/07/21 03:37:42;;;;;;;4.57;1.15;;;15.90;82.40;;;;;;5036431;28;20029;-74
2023/07/21 03:40:09;;;;;;;2.00;0.80;;;15.90;82.70;;;;;;5036294;28;20044;-74
2023/07/21 03:42:35;;;;;;;2.00;0.70;;;15.90;82.90;;;;;;5018689;28;20025;-74
2023/07/21 03:45:04;;;;;;;2.78;1.08;;;15.80;82.90;;;;;;5036132;28;20021;-74
2023/07/21 03:47:34;;;;;;;1.77;0.80;;;15.80;83.10;;;;;;5018734;28;20040;-74
2023/07/21 03:50:00;;;;;;;2.30;1.02;;;15.80;83.90;;;;;;5036230;28;20363;-74
2023/07/21 03:52:27;;;;;;;2.08;0.88;;;15.80;83.40;;;;;;5036042;28;20056;-74
2023/07/21 03:54:53;;;;;;;2.60;1.02;;;15.80;83.50;;;;;;5034999;28;20029;-76
2023/07/21 03:57:19;;;;;;;1.88;0.90;;;15.70;83.50;;;;;;5036277;28;20348;-76
2023/07/21 03:59:45;;;;;;;1.52;0.73;;;15.70;83.70;;;;;;5018257;28;20436;-76
2023/07/21 04:02:11;;;;;;;2.08;0.90;;;15.70;83.90;;;;;;5047391;28;20027;-76
2023/07/21 04:04:36;;;;;;;2.20;0.80;;;15.60;84.60;;;;;;5054679;28;20509;-76
2023/07/21 04:07:05;;;;;;;3.55;0.90;;;15.60;84.10;;;;;;5053631;28;20029;-76
2023/07/21 04:09:31;;;;;;;3.90;1.02;;;15.60;84.30;;;;;;5054054;28;20365;-76
2023/07/21 04:11:57;;;;;;;2.47;1.00;;;15.60;84.50;;;;;;5055900;28;20025;-76
2023/07/21 04:14:22;;;;;;;2.92;1.10;;;15.50;84.70;;;;;;5054317;28;20033;-75
2023/07/21 04:16:48;;;;;;;4.00;1.10;;;15.50;85.10;;;;;;5036801;28;20053;-75
2023/07/21 04:19:14;;;;;;;2.15;0.88;;;15.50;85.40;;;;;;5054199;28;20033;-75
2023/07/21 04:21:39;;;;;;;1.75;0.98;;;15.50;85.70;;;;;;5054667;28;20056;-75
2023/07/21 04:24:05;;;;;;;2.08;0.90;;;15.50;86.50;;;;;;5055537;28;20107;-74
2023/07/21 04:26:31;;;;;;;3.20;1.08;;;15.50;86.00;;;;;;5055797;28;20496;-75
2023/07/21 04:28:57;;;;;;;2.53;0.95;;;15.60;86.20;;;;;;5055309;28;20044;-75
2023/07/21 04:31:28;;;;;;;1.95;0.85;;;15.60;86.30;;;;;;5054096;28;20115;-74
2023/07/21 04:33:57;;;;;;;4.68;1.30;;;15.60;86.40;;;;;;5053869;28;20469;-75
2023/07/21 04:36:22;;;;;;;1.70;0.90;;;15.70;86.50;;;;;;5053832;28;20052;-75
2023/07/21 04:38:48;;;;;;;1.98;0.80;;;15.70;86.60;;;;;;5037158;28;20067;-75
2023/07/21 04:41:14;;;;;;;2.50;0.80;;;15.70;86.80;;;;;;5037376;28;20043;-75
2023/07/21 04:43:39;;;;;;;6.15;1.10;;;15.70;86.80;;;;;;5054168;28;20039;-75
2023/07/21 04:46:05;;;;;;;1.80;0.82;;;15.70;87.00;;;;;;5055362;28;20037;-75
2023/07/21 04:48:31;;;;;;;2.83;0.90;;;15.70;87.00;;;;;;5053639;28;20060;-74
2023/07/21 04:50:57;;;;;;;2.05;0.80;;;15.70;87.00;;;;;;5036995;28;20037;-75
2023/07/21 04:53:23;;;;;;;1.80;0.80;;;15.80;87.00;;;;;;5036973;28;20474;-74
2023/07/21 04:55:49;;;;;;;2.30;1.17;;;15.80;86.90;;;;;;5054828;28;20100;-75
2023/07/21 04:58:15;;;;;;;1.60;0.70;;;15.80;86.90;;;;;;5053964;28;20470;-74
2023/07/21 05:00:40;;;;;;;5.22;0.80;;;15.80;86.90;;;;;;5053348;28;20036;-74
2023/07/21 05:03:06;;;;;;;3.05;0.80;;;15.80;86.70;;;;;;5054595;28;20034;-74
2023/07/21 05:05:35;;;;;;;1.63;0.77;;;15.80;86.60;;;;;;5053211;28;20590;-75
2023/07/21 05:08:01;;;;;;;1.30;0.70;;;15.80;86.50;;;;;;5053215;28;20396;-74
2023/07/21 05:10:27;;;;;;;1.40;0.68;;;15.80;86.40;;;;;;5036301;28;20026;-74
2023/07/21 05:12:53;;;;;;;1.67;0.77;;;15.70;86.40;;;;;;5036566;28;20051;-74
2023/07/21 05:15:19;;;;;;;2.25;0.73;;;15.70;86.40;;;;;;5026167;28;20033;-75
2023/07/21 05:17:44;;;;;;;1.92;0.82;;;15.70;86.40;;;;;;5052835;28;20056;-74
2023/07/21 05:20:11;;;;;;;2.22;0.90;;;15.70;86.50;;;;;;5053955;28;20400;-74
2023/07/21 05:22:37;;;;;;;4.93;1.17;;;15.70;86.60;;;;;;5054407;28;20123;-75
2023/07/21 05:25:07;;;;;;;4.82;1.20;;;15.70;86.60;;;;;;5053070;28;20024;-74
2023/07/21 05:27:32;;;;;;;3.88;1.15;;;15.70;86.80;;;;;;5052699;28;20037;-75
2023/07/21 05:30:01;;;;;;;2.55;1.10;;;15.70;86.80;;;;;;5052909;28;20043;-74
2023/07/21 05:32:26;;;;;;;2.13;0.80;;;15.70;86.80;;;;;;5054067;28;20071;-75
2023/07/21 05:34:52;;;;;;;3.00;1.20;;;15.70;86.80;;;;;;5036128;28;20052;-74
2023/07/21 05:37:17;;;;;;;3.10;1.10;;;15.70;86.80;;;;;;5052715;28;20051;-74
2023/07/21 05:39:43;;;;;;;2.88;1.17;;;15.80;86.90;;;;;;5036070;28;20029;-74
2023/07/21 05:42:09;;;;;;;2.78;1.00;;;15.80;86.90;;;;;;5053803;28;20044;-74
2023/07/21 05:44:34;;;;;;;3.72;1.30;;;15.80;86.90;;;;;;5052845;28;20037;-75
2023/07/21 05:47:01;;;;;;;3.47;1.30;;;15.80;86.90;;;;;;5053953;28;20397;-74
2023/07/21 05:49:27;;;;;;;3.40;1.40;;;15.90;87.10;;;;;;5053644;28;20029;-74
2023/07/21 05:51:53;;;;;;;3.10;1.50;;;15.90;87.00;;;;;;5052581;28;20036;-74
2023/07/21 05:54:19;;;;;;;3.65;1.10;;;15.90;87.00;;;;;;5052575;28;20465;-75
2023/07/21 05:56:45;;;;;;;2.58;1.30;;;16.00;87.00;;;;;;5052478;28;20024;-75
2023/07/21 05:59:11;;;;;;;2.08;1.08;;;16.00;86.90;;;;;;5053600;28;20032;-75
2023/07/21 06:01:37;;;;;;;5.05;0.93;;;16.10;86.80;;;;;;5053681;28;20032;-75
2023/07/21 06:04:06;;;;;;;2.88;1.25;;;16.10;86.70;;;;;;5052571;28;20029;-75
2023/07/21 06:06:32;;;;;;;3.25;0.90;;;16.20;86.60;;;;;;5053629;28;20063;-75
2023/07/21 06:08:58;;;;;;;2.28;1.13;;;16.20;86.60;;;;;;5052129;28;20025;-75
2023/07/21 06:11:26;;;;;;;2.33;1.17;;;16.30;86.60;;;;;;5052006;28;20025;-74
2023/07/21 06:13:51;;;;;;;2.25;1.10;;;16.30;86.60;;;;;;5053325;28;20049;-74
2023/07/21 06:16:17;;;;;;;2.47;1.30;;;16.40;86.60;;;;;;5052021;28;20056;-74
2023/07/21 06:18:43;;;;;;;3.08;1.60;;;16.50;86.60;;;;;;5035366;28;20064;-74
2023/07/21 06:21:12;;;;;;;2.30;1.50;;;16.50;87.40;;;;;;5034523;28;20120;-75
2023/07/21 06:23:38;;;;;;;4.32;0.95;;;16.60;86.60;;;;;;5019142;28;20079;-75
2023/07/21 06:26:04;;;;;;;4.72;1.33;;;16.60;86.60;;;;;;5051754;28;20033;-75
2023/07/21 06:28:30;;;;;;;3.55;1.17;;;16.70;86.70;;;;;;5050693;28;20029;-74
2023/07/21 06:30:55;;;;;;;3.17;1.05;;;16.70;86.70;;;;;;5047958;28;20060;-79
2023/07/21 06:33:22;;;;;;;2.67;1.17;;;16.80;86.70;;;;;;5050639;28;20033;-80
2023/07/21 06:35:50;;;;;;;2.40;1.20;;;16.80;86.60;;;;;;5040248;28;20022;-80
2023/07/21 06:38:15;;;;;;;2.30;1.00;;;16.90;86.60;;;;;;5034522;28;20056;-81
2023/07/21 06:40:41;;;;;;;2.20;1.00;;;16.90;87.10;;;;;;5031908;28;20029;-74
2023/07/21 06:43:07;;;;;;;3.60;0.90;;;17.00;86.40;;;;;;5033552;28;20100;-80
2023/07/21 06:45:33;;;;;;;3.80;1.50;;;17.10;86.20;;;;;;5037099;28;20121;-80
2023/07/21 06:47:59;;;;;;;3.33;1.23;;;17.10;85.80;;;;;;5023782;28;20021;-80
2023/07/21 06:50:25;;;;;;;3.10;1.00;;;17.20;85.50;;;;;;5048486;28;20088;-81
2023/07/21 06:52:50;;;;;;;2.53;1.05;;;17.30;85.30;;;;;;5033193;28;20029;-80
2023/07/21 06:55:16;;;;;;;2.10;0.90;;;17.40;85.20;;;;;;5043815;28;20021;-74
2023/07/21 06:57:42;;;;;;;2.03;0.90;;;17.50;85.10;;;;;;5052988;28;20485;-74
2023/07/21 07:00:08;;;;;;;2.55;1.00;;;17.60;84.80;;;;;;5051846;28;20028;-73
2023/07/21 07:02:34;;;;;;;2.17;0.90;;;17.70;84.50;;;;;;5052037;28;20388;-75
2023/07/21 07:04:59;;;;;;;2.75;0.85;;;17.80;84.20;;;;;;5035088;28;20029;-75
2023/07/21 07:07:27;;;;;;;2.53;0.80;;;17.90;83.70;;;;;;5052885;28;20037;-74
2023/07/21 07:09:52;;;;;;;2.03;0.75;;;18.10;83.20;;;;;;5047411;28;20041;-75
2023/07/21 07:12:18;;;;;;;1.77;0.80;;;18.20;82.60;;;;;;5040871;28;20025;-75
2023/07/21 07:14:46;;;;;;;2.78;0.70;;;18.30;82.00;;;;;;5040816;28;20112;-75
2023/07/21 07:17:12;;;;;;;3.40;0.80;;;18.40;81.50;;;;;;5052416;28;20056;-75
2023/07/21 07:19:38;;;;;;;1.67;0.70;;;18.50;80.90;;;;;;5035656;28;20453;-75
2023/07/21 07:22:08;;;;;;;1.35;0.60;;;18.50;80.40;;;;;;5052567;28;20036;-75
2023/07/21 07:24:34;;;;;;;1.58;0.50;;;18.60;80.30;;;;;;5051787;28;20032;-75
2023/07/21 07:27:00;;;;;;;2.60;0.80;;;18.70;79.90;;;;;;5048289;28;20041;-75
2023/07/21 07:29:26;;;;;;;3.08;0.80;;;18.80;79.60;;;;;;5047757;28;20021;-75
2023/07/21 07:31:52;;;;;;;1.80;0.60;;;18.90;79.30;;;;;;5050904;28;20047;-74
2023/07/21 07:34:18;;;;;;;3.13;0.82;;;19.10;79.00;;;;;;5038954;28;20051;-75
2023/07/21 07:36:43;;;;;;;3.42;0.88;;;19.20;78.40;;;;;;5055570;28;20053;-75
2023/07/21 07:39:12;;;;;;;1.90;0.75;;;19.30;78.20;;;;;;5053647;28;20535;-75
2023/07/21 07:41:38;;;;;;;2.50;0.90;;;19.40;77.60;;;;;;5054500;28;20033;-75
2023/07/21 07:44:06;;;;;;;2.33;0.80;;;19.50;77.20;;;;;;5045627;28;20094;-74
2023/07/21 07:46:32;;;;;;;1.30;0.60;;;19.60;76.80;;;;;;5030279;28;20056;-74
2023/07/21 07:48:57;;;;;;;2.65;0.75;;;19.70;76.50;;;;;;5055822;28;20461;-75
2023/07/21 07:51:23;;;;;;;2.63;0.70;;;19.90;75.80;;;;;;5054327;28;20469;-74
2023/07/21 07:53:49;;;;;;;1.95;0.68;;;20.00;75.00;;;;;;5045762;28;20025;-74
2023/07/21 07:56:15;;;;;;;1.85;0.60;;;20.10;75.40;;;;;;5037277;28;20477;-74
2023/07/21 07:58:41;;;;;;;2.60;0.50;;;20.10;74.40;;;;;;5037639;28;20103;-75
2023/07/21 08:01:06;;;;;;;2.83;0.52;;;20.20;74.10;;;;;;5054516;28;20120;-74
2023/07/21 08:03:32;;;;;;;3.17;0.70;;;20.30;73.80;;;;;;5055349;28;20516;-75
2023/07/21 08:05:59;;;;;;;3.17;0.68;;;20.40;73.50;;;;;;5054342;28;20492;-75
2023/07/21 08:08:25;;;;;;;2.38;0.80;;;20.50;73.00;;;;;;5055291;28;20068;-74
2023/07/21 08:10:51;;;;;;;1.42;0.70;;;20.50;72.80;;;;;;5054444;28;20033;-75
2023/07/21 08:13:17;;;;;;;2.03;0.70;;;20.60;72.30;;;;;;5053991;28;20057;-75
2023/07/21 08:15:44;;;;;;;1.88;0.70;;;20.70;71.50;;;;;;5049133;28;20033;-75
2023/07/21 08:18:12;;;;;;;2.55;0.70;;;20.70;71.10;;;;;;5035249;28;20045;-74
2023/07/21 08:20:40;;;;;;;3.38;0.80;;;20.70;70.40;;;;;;5054518;28;20091;-73
2023/07/21 08:23:06;;;;;;;2.65;0.95;;;20.70;70.50;;;;;;5052759;28;20061;-74
2023/07/21 08:25:31;;;;;;;2.63;0.68;;;20.70;70.40;;;;;;5055310;28;20063;-74
2023/07/21 08:27:59;;;;;;;5.50;1.05;;;20.70;70.30;;;;;;5054876;28;20040;-75
2023/07/21 08:30:25;;;;;;;3.28;0.82;;;20.80;69.60;;;;;;5037595;28;20060;-74
2023/07/21 08:32:51;;;;;;;2.40;0.88;;;20.80;69.80;;;;;;5053921;28;20057;-75
2023/07/21 08:35:16;;;;;;;4.40;0.90;;;20.80;69.50;;;;;;5053832;28;20078;-76
2023/07/21 08:37:43;;;;;;;2.17;0.90;;;20.80;69.10;;;;;;5052328;28;20029;-73
2023/07/21 08:40:09;;;;;;;3.35;1.25;;;20.80;69.20;;;;;;5032530;28;20473;-81
2023/07/21 08:42:36;;;;;;;2.58;1.00;;;20.80;69.30;;;;;;5036450;28;20030;-80
2023/07/21 08:45:06;;;;;;;2.38;1.02;;;20.90;69.30;;;;;;5047041;28;20026;-80
2023/07/21 08:47:32;;;;;;;2.08;1.38;;;21.00;69.00;;;;;;5043594;28;20375;-80
2023/07/21 08:49:58;;;;;;;2.15;0.95;;;21.00;68.70;;;;;;5041962;28;20358;-80
2023/07/21 08:52:23;;;;;;;4.32;1.20;;;21.00;67.80;;;;;;5042929;28;20109;-80
2023/07/21 08:54:49;;;;;;;2.63;0.90;;;21.10;67.80;;;;;;5044051;28;20027;-80
2023/07/21 08:57:15;;;;;;;1.80;0.88;;;21.10;67.50;;;;;;5052874;28;20440;-79
2023/07/21 08:59:41;;;;;;;3.00;0.90;;;21.10;67.20;;;;;;5047465;28;20041;-80
2023/07/21 09:02:07;;;;;;;2.80;0.70;;;21.10;66.70;;;;;;5054661;28;20025;-75
2023/07/21 09:04:33;;;;;;;2.58;1.20;;;21.10;66.80;;;;;;5054752;28;20041;-80
2023/07/21 09:07:00;;;;;;;3.38;0.98;;;21.10;66.70;;;;;;5053451;28;20442;-80
2023/07/21 09:09:28;;;;;;;2.55;0.95;;;21.10;66.70;;;;;;5054246;28;20149;-75
2023/07/21 09:12:01;;;;;;;3.20;1.05;;;21.10;66.70;;;;;;5054397;28;20029;-75
2023/07/21 09:14:38;;;;;;;1.95;0.95;;;21.10;66.40;;;;;;5054239;28;20025;-75
2023/07/21 09:17:06;;;;;;;2.97;1.10;;;21.10;65.50;;;;;;5036394;28;20531;-75
2023/07/21 09:19:36;;;;;;;3.08;1.25;;;21.10;65.10;;;;;;5036431;28;20033;-75
2023/07/21 09:22:02;;;;;;;2.80;1.10;;;21.10;65.30;;;;;;5054059;28;20131;-76
2023/07/21 09:24:28;;;;;;;2.35;1.08;;;21.10;65.30;;;;;;5052752;28;20052;-75
2023/07/21 09:27:13;;;;;;;1.90;1.00;;;21.20;65.60;;;;;;5053691;28;20033;-76
2023/07/21 09:29:40;;;;;;;4.70;0.98;;;21.30;65.30;;;;;;5053751;28;20103;-76
2023/07/21 09:32:18;;;;;;;2.63;0.80;;;21.40;65.30;;;;;;5052904;28;20028;-75
2023/07/21 09:34:54;;;;;;;1.98;0.80;;;21.50;65.20;;;;;;5053009;28;20021;-76
2023/07/21 09:37:21;;;;;;;2.17;1.10;;;21.60;64.80;;;;;;5052728;28;20036;-76
2023/07/21 09:39:52;;;;;;;3.13;1.00;;;21.70;64.60;;;;;;5052946;28;20072;-75
2023/07/21 09:42:21;;;;;;;3.20;1.27;;;21.70;63.20;;;;;;5053787;28;20024;-76
2023/07/21 09:44:48;;;;;;;1.05;0.50;;;21.80;62.70;;;;;;5053685;28;20095;-75
2023/07/21 09:47:16;;;;;;;1.38;0.70;;;21.80;62.10;;;;;;5054195;28;20478;-81
2023/07/21 09:49:41;;;;;;;1.63;0.73;;;21.90;60.70;;;;;;5052418;28;20021;-75
2023/07/21 09:52:10;;;;;;;3.38;0.90;;;22.00;59.70;;;;;;5035915;28;20401;-75
2023/07/21 09:54:41;;;;;;;1.85;0.50;;;22.10;59.20;;;;;;5052582;28;20056;-74
2023/07/21 09:57:09;;;;;;;1.77;0.60;;;22.20;59.80;;;;;;5052166;28;20009;-75
2023/07/21 09:59:37;;;;;;;1.83;0.77;;;22.40;59.50;;;;;;5053695;28;20049;-75
2023/07/21 10:02:07;;;;;;;1.95;0.90;;;22.50;58.60;;;;;;5053548;28;20028;-75
2023/07/21 10:04:34;;;;;;;2.55;1.00;;;22.50;58.00;;;;;;5052825;28;20025;-80
2023/07/21 10:07:03;;;;;;;1.30;0.70;;;22.60;58.40;;;;;;5052373;28;20061;-81
2023/07/21 10:09:32;;;;;;;1.90;0.68;;;22.80;58.60;;;;;;5036286;28;20036;-75
2023/07/21 10:12:18;;;;;;;1.90;0.77;;;22.80;58.90;;;;;;5057681;28;20483;-75
2023/07/21 10:14:44;;;;;;;2.17;0.73;;;22.90;58.50;;;;;;5055690;28;20400;-75
2023/07/21 10:17:21;;;;;;;2.38;0.93;;;22.90;58.70;;;;;;5057019;28;20029;-76
2023/07/21 10:19:47;;;;;;;3.72;1.20;;;22.90;58.60;;;;;;5053359;28;20453;-81
2023/07/21 10:22:24;;;;;;;3.03;1.27;;;22.80;58.20;;;;;;5052507;28;20064;-81
2023/07/21 10:24:51;;;;;;;3.40;1.33;;;22.80;58.30;;;;;;5053580;28;20087;-81
2023/07/21 10:27:24;;;;;;;4.38;1.40;;;22.80;58.60;;;;;;5053629;28;20033;-81
2023/07/21 10:29:56;;;;;;;2.97;1.30;;;22.80;58.90;;;;;;5053029;28;20102;-82
2023/07/21 10:32:22;;;;;;;2.55;1.05;;;22.80;58.80;;;;;;5041076;28;20487;-82
2023/07/21 10:34:48;;;;;;;4.18;1.30;;;22.90;59.10;;;;;;5038449;28;20030;-82
2023/07/21 10:37:14;;;;;;;2.13;1.00;;;22.90;59.30;;;;;;5055342;28;20120;-81
2023/07/21 10:39:44;;;;;;;3.10;1.10;;;23.00;59.40;;;;;;5073170;28;20033;-81
2023/07/21 10:42:11;;;;;;;2.95;1.40;;;23.20;59.40;;;;;;5071866;28;20028;-76
2023/07/21 10:44:45;;;;;;;4.70;1.27;;;23.30;58.90;;;;;;5073509;28;20032;-76
2023/07/21 10:47:12;;;;;;;1.77;0.68;;;23.40;58.90;;;;;;5073039;28;20048;-76
2023/07/21 10:49:38;;;;;;;3.85;0.93;;;23.50;58.70;;;;;;5056495;28;20076;-76
2023/07/21 10:52:04;;;;;;;3.58;1.33;;;23.80;58.60;;;;;;5052546;28;20056;-75
2023/07/21 10:54:30;;;;;;;2.47;0.88;;;24.00;58.00;;;;;;5052685;28;20036;-75
2023/07/21 10:56:58;;;;;;;2.10;0.77;;;24.30;57.60;;;;;;5045587;28;20017;-82
2023/07/21 10:59:24;;;;;;;1.48;0.60;;;24.70;57.30;;;;;;5047741;28;20036;-82
2023/07/21 11:01:53;;;;;;;1.40;0.50;;;25.00;57.80;;;;;;5045306;28;20021;-82
2023/07/21 11:04:20;;;;;;;1.30;0.45;;;25.20;56.90;;;;;;5051462;28;20120;-81
2023/07/21 11:06:49;;;;;;;3.13;0.55;;;25.20;56.30;;;;;;5052670;28;20021;-82
2023/07/21 11:09:16;;;;;;;1.27;0.50;;;25.30;55.70;;;;;;5054708;28;20028;-82
2023/07/21 11:11:46;;;;;;;1.23;0.50;;;25.30;55.20;;;;;;5056972;28;20032;-82
2023/07/21 11:14:18;;;;;;;1.85;0.40;;;25.30;54.70;;;;;;5055688;28;20481;-78
2023/07/21 11:16:53;;;;;;;0.90;0.40;;;25.40;54.20;;;;;;5056019;28;20041;-82
2023/07/21 11:19:27;;;;;;;0.43;0.20;;;25.50;53.60;;;;;;5056900;28;20068;-82
2023/07/21 11:21:53;;;;;;;0.93;0.30;;;25.50;52.90;;;;;;5055106;28;20025;-83
2023/07/21 11:24:23;;;;;;;1.05;0.30;;;25.70;52.40;;;;;;5038710;28;20140;-82
2023/07/21 11:26:49;;;;;;;1.13;0.25;;;25.90;52.00;;;;;;5056658;28;20116;-82
2023/07/21 11:29:16;;;;;;;0.60;0.30;;;26.00;51.40;;;;;;5055273;28;20106;-83
2023/07/21 11:31:42;;;;;;;1.35;0.30;;;26.10;51.00;;;;;;5056197;28;20025;-83
2023/07/21 11:34:22;;;;;;;0.73;0.30;;;26.30;50.70;;;;;;5056411;28;20075;-82
2023/07/21 11:36:52;;;;;;;1.40;0.30;;;26.50;50.10;;;;;;5056209;28;20049;-83
2023/07/21 11:39:20;;;;;;;1.52;0.47;;;26.70;50.10;;;;;;5055086;28;20393;-77
2023/07/21 11:41:54;;;;;;;1.00;0.50;;;26.90;50.10;;;;;;5056275;28;20102;-77
2023/07/21 11:44:25;;;;;;;2.38;0.50;;;26.90;50.10;;;;;;5038615;28;20123;-77
2023/07/21 11:47:04;;;;;;;1.65;0.55;;;26.90;50.20;;;;;;5055957;28;20075;-83
2023/07/21 11:49:32;;;;;;;1.73;0.47;;;27.00;49.80;;;;;;5054753;28;20033;-82
2023/07/21 11:52:04;;;;;;;0.80;0.30;;;27.10;49.90;;;;;;5056083;28;20024;-83
2023/07/21 11:54:40;;;;;;;1.63;0.50;;;27.10;49.60;;;;;;5056065;28;20090;-84
2023/07/21 11:57:07;;;;;;;1.63;0.70;;;27.30;49.50;;;;;;5055605;28;20025;-83
2023/07/21 11:59:33;;;;;;;1.52;0.68;;;27.30;49.60;;;;;;5055756;28;20103;-83
2023/07/21 12:02:03;;;;;;;1.92;0.57;;;27.40;49.40;;;;;;5036537;28;20115;-84
2023/07/21 12:04:30;;;;;;;1.02;0.40;;;27.40;49.30;;;;;;5037590;28;20040;-83
2023/07/21 12:06:56;;;;;;;1.67;0.55;;;27.30;49.00;;;;;;5029520;28;20029;-84
2023/07/21 12:09:22;;;;;;;1.80;0.50;;;27.20;48.90;;;;;;5040160;28;20032;-78
2023/07/21 12:11:48;;;;;;;1.52;0.52;;;27.00;49.00;;;;;;5044749;28;20044;-83
2023/07/21 12:14:14;;;;;;;1.20;0.40;;;26.90;49.10;;;;;;5045350;28;20378;-84
2023/07/21 12:16:39;;;;;;;3.17;0.60;;;26.90;49.40;;;;;;5055441;28;20056;-83
2023/07/21 12:19:07;;;;;;;1.08;0.40;;;26.90;49.20;;;;;;5025994;28;20045;-83
2023/07/21 12:21:34;;;;;;;1.60;0.43;;;26.90;49.10;;;;;;5054205;28;20075;-83
2023/07/21 12:24:00;;;;;;;1.42;0.50;;;26.90;49.40;;;;;;5054375;28;20040;-77
2023/07/21 12:26:26;;;;;;;0.98;0.50;;;27.00;49.40;;;;;;5054097;28;20029;-77
2023/07/21 12:28:52;;;;;;;2.08;0.73;;;27.00;49.20;;;;;;5054285;28;20040;-77
2023/07/21 12:31:18;;;;;;;1.98;0.60;;;27.00;49.10;;;;;;5046433;28;20033;-83
2023/07/21 12:33:44;;;;;;;1.50;0.70;;;26.90;49.00;;;;;;5055613;28;20022;-78
2023/07/21 12:36:12;;;;;;;1.10;0.50;;;26.70;48.90;;;;;;5042886;28;20482;-79
2023/07/21 12:38:38;;;;;;;1.20;0.32;;;26.60;49.10;;;;;;5043766;28;20032;-80
2023/07/21 12:41:03;;;;;;;2.00;0.88;;;26.50;49.40;;;;;;5054473;28;20060;-78
2023/07/21 12:43:29;;;;;;;2.80;0.95;;;26.20;50.20;;;;;;5055249;28;20067;-83
2023/07/21 12:45:55;;;;;;;2.13;0.70;;;26.00;50.90;;;;;;5060628;28;20098;-83
2023/07/21 12:48:20;;;;;;;1.80;0.90;;;25.70;51.60;;;;;;5041728;28;20456;-84